Terminal Aerodrome Forecast
Issued by NWS

Home | Current Version | Previous Version | Text Only | Print | Product List | Glossary On
Versions: 1 2 3 4 5 6 7 8 9 10 11 12 13 14 15
000
FTAK31 PAJN 300500 RRA
TAFAWG
TAF
PAWG 300541Z 3006/3106 10009KT P6SM VCSH FEW030 BKN045
     FM300800 12007KT P6SM SCT045 BKN110
     FM301500 08008KT P6SM FEW110 BKN200
     FM301900 06008KT P6SM OVC090
     FM302200 08010KT P6SM -RA SCT030 OVC050
     FM310200 11011KT 5SM -RA BR BKN030 OVC040
      AMD LTD TO CLD VIS AND WIND 3006/3015=

USA.gov is the U.S. government's official web portal to all federal, state and local government web resources and services.